Time;durP1;ratioP1;P1;durP2;ratioP2;P2;SDS_P1;SDS_P2;PMS_P1;PMS_P2;Temp;Humidity;BMP_temperature;BMP_pressure;BME280_temperature;BME280_humidity;BME280_pressure;Samples;Min_cycle;Max_cycle;Signal;HPM_P1;HPM_P2
2021/04/16 00:01:48;;;;;;;2.88;2.42;;;4.20;82.00;;;;;;5026879;28;20500;-56
2021/04/16 00:04:13;;;;;;;3.42;2.42;;;4.30;82.30;;;;;;5024772;28;20132;-56
2021/04/16 00:06:39;;;;;;;2.97;2.38;;;4.40;82.30;;;;;;5030895;28;20025;-53
2021/04/16 00:09:05;;;;;;;4.18;2.58;;;4.30;82.40;;;;;;5022460;28;20025;-53
2021/04/16 00:11:30;;;;;;;4.10;2.70;;;4.20;82.70;;;;;;5034743;28;20041;-55
2021/04/16 00:13:56;;;;;;;3.50;2.40;;;4.20;83.10;;;;;;5019270;28;20030;-56
2021/04/16 00:16:26;;;;;;;4.05;2.80;;;4.20;83.90;;;;;;5038724;28;20470;-60
2021/04/16 00:18:52;;;;;;;3.90;3.13;;;4.20;83.50;;;;;;5023956;28;20048;-55
2021/04/16 00:21:17;;;;;;;5.15;2.50;;;4.30;83.30;;;;;;5033834;28;20030;-50
2021/04/16 00:23:44;;;;;;;3.33;2.67;;;4.10;83.80;;;;;;5023203;28;20502;-53
2021/04/16 00:26:12;;;;;;;3.80;2.60;;;4.20;84.00;;;;;;5031859;28;20044;-53
2021/04/16 00:28:38;;;;;;;5.53;2.30;;;4.10;84.20;;;;;;5016574;28;20128;-58
2021/04/16 00:31:17;;;;;;;3.83;2.92;;;4.20;84.10;;;;;;5021654;28;20036;-58
2021/04/16 00:33:43;;;;;;;3.80;2.65;;;4.10;84.40;;;;;;5018121;28;20034;-57
2021/04/16 00:36:11;;;;;;;4.25;3.00;;;4.20;84.40;;;;;;5018266;28;20046;-54
2021/04/16 00:38:37;;;;;;;4.53;2.70;;;4.10;84.40;;;;;;5015146;28;20026;-53
2021/04/16 00:41:06;;;;;;;5.78;2.90;;;4.00;85.00;;;;;;5018385;28;20053;-53
2021/04/16 00:43:33;;;;;;;2.88;2.40;;;4.10;85.20;;;;;;5022830;28;20076;-55
2021/04/16 00:46:35;;;;;;;5.47;3.15;;;4.20;84.90;;;;;;5036001;28;20033;-55
2021/04/16 00:49:03;;;;;;;4.47;2.95;;;4.30;84.70;;;;;;5015279;28;20566;-56
2021/04/16 00:51:38;;;;;;;3.50;3.00;;;4.40;84.50;;;;;;5021422;28;20048;-52
2021/04/16 00:54:11;;;;;;;4.03;2.97;;;4.30;84.40;;;;;;5015260;28;20034;-55
2021/04/16 00:56:37;;;;;;;5.15;3.30;;;4.30;84.60;;;;;;5026838;28;20445;-53
2021/04/16 00:59:03;;;;;;;5.53;3.38;;;4.30;84.50;;;;;;5033094;28;20120;-53
2021/04/16 01:01:28;;;;;;;4.50;3.10;;;4.40;84.20;;;;;;5029771;28;20548;-58
2021/04/16 01:03:55;;;;;;;4.47;3.47;;;4.50;84.00;;;;;;5014866;28;20101;-53
2021/04/16 01:06:22;;;;;;;5.78;3.40;;;4.40;84.10;;;;;;5029160;28;20033;-51
2021/04/16 01:08:48;;;;;;;3.92;3.50;;;4.50;83.80;;;;;;5014459;28;20038;-51
2021/04/16 01:11:14;;;;;;;5.47;3.83;;;4.50;83.80;;;;;;5031760;28;20456;-55
2021/04/16 01:13:42;;;;;;;5.15;3.60;;;4.50;83.70;;;;;;5046381;28;20042;-55
2021/04/16 01:16:11;;;;;;;4.75;3.65;;;4.60;83.50;;;;;;5032859;28;20026;-56
2021/04/16 01:18:42;;;;;;;4.05;3.20;;;4.60;83.50;;;;;;5020726;28;20485;-56
2021/04/16 01:21:12;;;;;;;4.30;3.42;;;4.50;83.40;;;;;;5034560;28;20397;-56
2021/04/16 01:23:50;;;;;;;4.75;3.50;;;4.30;84.60;;;;;;5013313;28;20052;-53
2021/04/16 01:26:32;;;;;;;4.55;3.85;;;4.30;85.30;;;;;;5035408;28;20044;-57
2021/04/16 01:28:57;;;;;;;5.80;3.72;;;4.10;86.60;;;;;;5014172;28;20050;-54
2021/04/16 01:31:26;;;;;;;4.72;3.90;;;4.10;86.80;;;;;;5035229;28;20070;-56
2021/04/16 01:33:52;;;;;;;5.80;3.75;;;4.10;87.60;;;;;;5014319;28;20026;-55
2021/04/16 01:36:30;;;;;;;6.35;3.50;;;4.00;88.00;;;;;;5035607;28;20117;-57
2021/04/16 01:38:58;;;;;;;7.13;3.70;;;4.10;88.00;;;;;;5014054;28;20022;-54
2021/04/16 01:41:25;;;;;;;4.97;3.67;;;4.00;87.90;;;;;;5040109;28;20036;-52
2021/04/16 01:43:57;;;;;;;3.92;3.42;;;4.10;88.10;;;;;;5023179;28;20025;-56
2021/04/16 01:46:23;;;;;;;5.70;3.28;;;4.10;87.60;;;;;;5036553;28;20440;-58
2021/04/16 01:48:58;;;;;;;4.05;3.13;;;4.10;88.80;;;;;;5013787;28;20045;-57
2021/04/16 01:51:42;;;;;;;5.50;3.67;;;4.20;88.00;;;;;;5031475;28;20046;-53
2021/04/16 01:54:09;;;;;;;4.40;3.63;;;4.00;88.50;;;;;;5014119;28;20118;-53
2021/04/16 01:56:37;;;;;;;9.25;3.50;;;4.00;88.80;;;;;;5033198;28;20052;-51
2021/04/16 01:59:06;;;;;;;5.00;3.45;;;3.90;89.10;;;;;;5013220;28;20032;-54
2021/04/16 02:01:32;;;;;;;4.15;3.00;;;3.80;89.80;;;;;;5019532;28;20501;-51
2021/04/16 02:03:58;;;;;;;4.47;3.15;;;3.90;89.50;;;;;;5013699;28;20029;-53
2021/04/16 02:06:23;;;;;;;4.93;3.30;;;3.90;88.90;;;;;;5019709;28;20530;-51
2021/04/16 02:08:49;;;;;;;5.15;3.33;;;4.00;88.40;;;;;;5013141;28;20393;-56
2021/04/16 02:11:14;;;;;;;7.05;3.38;;;4.00;88.70;;;;;;5021544;28;20155;-55
2021/04/16 02:13:40;;;;;;;6.55;3.90;;;3.80;89.10;;;;;;5048951;28;20037;-59
2021/04/16 02:16:06;;;;;;;4.97;3.60;;;4.00;88.50;;;;;;5022624;28;20496;-54
2021/04/16 02:18:32;;;;;;;5.78;3.28;;;4.10;88.00;;;;;;5018836;28;20413;-57
2021/04/16 02:20:57;;;;;;;4.28;3.10;;;4.20;87.40;;;;;;5036814;28;20111;-56
2021/04/16 02:23:23;;;;;;;4.65;3.45;;;4.20;86.70;;;;;;5031269;28;20032;-55
2021/04/16 02:25:49;;;;;;;5.25;3.33;;;4.30;86.90;;;;;;5032084;28;20036;-55
2021/04/16 02:28:14;;;;;;;5.18;3.60;;;4.30;86.50;;;;;;5012242;28;20045;-51
2021/04/16 02:30:40;;;;;;;3.90;3.35;;;4.30;86.80;;;;;;5053697;28;20033;-53
2021/04/16 02:33:08;;;;;;;5.63;3.47;;;4.40;86.70;;;;;;5025354;28;20068;-54
2021/04/16 02:35:34;;;;;;;3.75;3.03;;;4.40;86.30;;;;;;5020984;28;20028;-56
2021/04/16 02:38:00;;;;;;;7.93;3.75;;;4.40;86.30;;;;;;5016064;28;20034;-53
2021/04/16 02:40:27;;;;;;;4.25;3.20;;;4.50;86.10;;;;;;5050197;28;20445;-51
2021/04/16 02:42:53;;;;;;;6.53;3.20;;;4.40;86.00;;;;;;5019738;28;20053;-53
2021/04/16 02:45:22;;;;;;;5.78;3.40;;;4.40;86.00;;;;;;5015319;28;20037;-52
2021/04/16 02:47:48;;;;;;;6.05;3.20;;;4.40;85.80;;;;;;5022474;28;20074;-53
2021/04/16 02:50:17;;;;;;;4.85;3.40;;;4.50;85.70;;;;;;5014269;28;20040;-55
2021/04/16 02:52:43;;;;;;;5.05;3.30;;;4.30;85.70;;;;;;5012765;28;20113;-54
2021/04/16 02:55:10;;;;;;;6.05;3.72;;;4.40;85.40;;;;;;5045941;28;20113;-56
2021/04/16 02:57:35;;;;;;;6.32;4.07;;;4.40;85.60;;;;;;5036494;28;20046;-57
2021/04/16 03:00:01;;;;;;;5.93;3.88;;;4.50;85.40;;;;;;5012713;28;20117;-57
2021/04/16 03:02:27;;;;;;;6.15;3.88;;;4.50;85.40;;;;;;5037189;28;20041;-55
2021/04/16 03:04:52;;;;;;;6.68;4.07;;;4.50;84.60;;;;;;5012775;28;20042;-54
2021/04/16 03:07:18;;;;;;;4.78;3.45;;;4.40;84.40;;;;;;5037449;28;20038;-55
2021/04/16 03:09:43;;;;;;;4.75;3.83;;;4.50;84.20;;;;;;5012300;28;20034;-53
2021/04/16 03:12:09;;;;;;;5.90;3.67;;;4.50;84.00;;;;;;5026377;28;20032;-55
2021/04/16 03:14:35;;;;;;;5.03;3.50;;;4.50;83.70;;;;;;5012994;28;20034;-56
2021/04/16 03:17:00;;;;;;;5.85;3.42;;;4.50;83.30;;;;;;5037934;28;20086;-55
2021/04/16 03:19:26;;;;;;;4.60;3.53;;;4.50;83.50;;;;;;5023686;28;20040;-52
2021/04/16 03:21:51;;;;;;;9.02;3.78;;;4.50;82.80;;;;;;5043152;28;20043;-56
2021/04/16 03:24:17;;;;;;;4.40;3.30;;;4.60;82.90;;;;;;5016615;28;20568;-53
2021/04/16 03:26:43;;;;;;;8.30;4.50;;;4.50;82.80;;;;;;5027746;28;20074;-51
2021/04/16 03:29:08;;;;;;;7.68;4.10;;;4.60;82.60;;;;;;5011180;28;20056;-54
2021/04/16 03:31:34;;;;;;;5.65;3.55;;;4.60;82.80;;;;;;5015078;28;20042;-54
2021/04/16 03:34:00;;;;;;;7.63;3.80;;;4.70;82.40;;;;;;5013143;28;20033;-54
2021/04/16 03:36:27;;;;;;;5.55;3.55;;;4.60;82.10;;;;;;5015405;28;20026;-55
2021/04/16 03:38:53;;;;;;;4.60;3.55;;;4.70;81.70;;;;;;5023171;28;20035;-51
2021/04/16 03:41:19;;;;;;;4.97;3.83;;;4.70;81.60;;;;;;5018101;28;20490;-56
2021/04/16 03:43:45;;;;;;;5.05;3.70;;;4.70;81.30;;;;;;5011997;28;20060;-56
2021/04/16 03:46:11;;;;;;;4.30;3.33;;;4.70;81.00;;;;;;5047441;28;20033;-55
2021/04/16 03:48:37;;;;;;;6.63;3.97;;;4.70;81.10;;;;;;5011658;28;20046;-57
2021/04/16 03:51:04;;;;;;;5.35;3.80;;;4.70;81.20;;;;;;5049704;28;20456;-54
2021/04/16 03:53:30;;;;;;;5.53;3.55;;;4.80;80.00;;;;;;5014265;28;20026;-58
2021/04/16 03:55:56;;;;;;;5.10;3.60;;;4.70;80.30;;;;;;5023112;28;20032;-61
2021/04/16 03:58:22;;;;;;;4.65;3.72;;;4.70;80.40;;;;;;5018954;28;20532;-54
2021/04/16 04:00:47;;;;;;;5.65;3.53;;;4.70;80.20;;;;;;5012687;28;20441;-56
2021/04/16 04:03:14;;;;;;;6.88;3.45;;;4.70;80.40;;;;;;5027051;28;20099;-52
2021/04/16 04:05:40;;;;;;;5.63;4.10;;;4.70;80.00;;;;;;5025769;28;20033;-56
2021/04/16 04:08:06;;;;;;;5.68;3.75;;;4.70;80.30;;;;;;5011297;28;20034;-58
2021/04/16 04:10:38;;;;;;;4.15;3.20;;;4.70;79.80;;;;;;5013544;28;20037;-58
2021/04/16 04:13:10;;;;;;;6.13;3.40;;;4.60;80.20;;;;;;5019907;28;20095;-56
2021/04/16 04:15:36;;;;;;;6.00;4.13;;;4.60;80.40;;;;;;5019616;28;20040;-55
2021/04/16 04:18:04;;;;;;;5.50;3.17;;;4.50;80.40;;;;;;5012854;28;20038;-56
2021/04/16 04:20:31;;;;;;;7.65;3.10;;;4.60;80.20;;;;;;5032124;28;20061;-54
2021/04/16 04:22:58;;;;;;;8.30;3.20;;;4.60;80.80;;;;;;5011772;28;20030;-54
2021/04/16 04:25:26;;;;;;;3.95;3.00;;;4.60;80.70;;;;;;5022242;28;20091;-54
2021/04/16 04:27:53;;;;;;;4.60;3.35;;;4.70;80.50;;;;;;5011998;28;20041;-54
2021/04/16 04:30:22;;;;;;;5.45;3.55;;;4.70;80.70;;;;;;5011414;28;20076;-54
2021/04/16 04:32:48;;;;;;;5.22;3.20;;;4.70;80.20;;;;;;5015219;28;20023;-56
2021/04/16 04:35:14;;;;;;;4.97;3.38;;;4.70;80.10;;;;;;5011676;28;20371;-54
2021/04/16 04:37:39;;;;;;;6.40;3.22;;;4.70;80.00;;;;;;5018610;28;20038;-55
2021/04/16 04:40:07;;;;;;;5.45;3.33;;;4.70;80.10;;;;;;5011939;28;20041;-53
2021/04/16 04:42:32;;;;;;;6.28;3.67;;;4.70;80.40;;;;;;5022890;28;20089;-57
2021/04/16 04:44:59;;;;;;;6.88;3.40;;;4.70;79.80;;;;;;5015551;28;20030;-56
2021/04/16 04:47:25;;;;;;;6.10;2.95;;;4.60;79.70;;;;;;5023383;28;20076;-56
2021/04/16 04:49:50;;;;;;;8.13;3.20;;;4.70;80.30;;;;;;5046554;28;20034;-58
2021/04/16 04:52:27;;;;;;;6.03;3.13;;;4.80;80.30;;;;;;5022117;28;20062;-56
2021/04/16 04:54:55;;;;;;;5.57;3.20;;;4.80;79.30;;;;;;5015625;28;20068;-56
2021/04/16 04:57:23;;;;;;;6.15;3.20;;;4.70;79.00;;;;;;5037759;28;20029;-53
2021/04/16 04:59:48;;;;;;;5.15;3.25;;;4.80;79.60;;;;;;5014803;28;20029;-55
2021/04/16 05:02:16;;;;;;;5.15;3.05;;;4.80;79.50;;;;;;5039086;28;20498;-57
2021/04/16 05:04:42;;;;;;;5.18;3.25;;;4.90;79.20;;;;;;5014860;28;20046;-59
2021/04/16 05:07:08;;;;;;;4.75;3.00;;;4.90;79.30;;;;;;5017885;28;20450;-56
2021/04/16 05:09:34;;;;;;;5.50;3.30;;;4.90;78.70;;;;;;5014777;28;20038;-55
2021/04/16 05:11:59;;;;;;;5.57;3.42;;;4.90;78.70;;;;;;5017996;28;20521;-58
2021/04/16 05:14:25;;;;;;;6.63;3.20;;;4.90;78.30;;;;;;5019602;28;20425;-57
2021/04/16 05:16:52;;;;;;;4.97;3.70;;;5.10;78.10;;;;;;5019816;28;20084;-59
2021/04/16 05:19:18;;;;;;;6.82;3.72;;;5.00;78.20;;;;;;5025190;28;20034;-58
2021/04/16 05:21:44;;;;;;;5.10;3.03;;;5.10;78.00;;;;;;5035630;28;20029;-55
2021/04/16 05:24:10;;;;;;;7.57;4.70;;;5.00;77.90;;;;;;5023343;28;20060;-56
2021/04/16 05:26:37;;;;;;;6.40;3.40;;;5.00;78.40;;;;;;5023710;28;20311;-58
2021/04/16 05:29:04;;;;;;;5.10;3.30;;;5.00;77.90;;;;;;5045890;28;20076;-56
2021/04/16 05:31:30;;;;;;;8.73;3.95;;;5.00;77.80;;;;;;5031104;28;20036;-56
2021/04/16 05:33:56;;;;;;;8.85;4.03;;;5.00;77.80;;;;;;5015008;28;20034;-58
2021/04/16 05:36:21;;;;;;;6.03;3.88;;;4.90;77.70;;;;;;5056238;28;20037;-59
2021/04/16 05:38:47;;;;;;;10.52;4.07;;;5.00;78.00;;;;;;5017134;28;20072;-56
2021/04/16 05:41:13;;;;;;;4.85;3.33;;;4.90;77.90;;;;;;5018457;28;20042;-55
2021/04/16 05:43:39;;;;;;;7.40;3.38;;;4.90;78.20;;;;;;5033309;28;20034;-55
2021/04/16 05:46:04;;;;;;;6.13;3.65;;;5.00;78.40;;;;;;5014109;28;20053;-56
2021/04/16 05:48:30;;;;;;;6.03;3.50;;;5.10;77.80;;;;;;5014033;28;20041;-55
2021/04/16 05:50:56;;;;;;;4.55;3.72;;;5.00;77.80;;;;;;5018797;28;20037;-51
2021/04/16 05:53:22;;;;;;;11.25;3.55;;;5.00;78.00;;;;;;5025316;28;20029;-57
2021/04/16 05:55:48;;;;;;;5.40;3.67;;;5.10;78.20;;;;;;5031981;28;20049;-54
2021/04/16 05:58:14;;;;;;;8.13;3.83;;;5.10;78.40;;;;;;5024712;28;20516;-55
2021/04/16 06:00:39;;;;;;;6.68;3.65;;;5.10;78.60;;;;;;5019189;28;20030;-55
2021/04/16 06:03:05;;;;;;;7.35;4.07;;;5.30;77.80;;;;;;5022082;28;20034;-56
2021/04/16 06:05:31;;;;;;;8.55;3.72;;;5.30;77.40;;;;;;5013443;28;20038;-57
2021/04/16 06:07:57;;;;;;;5.60;3.25;;;5.30;77.40;;;;;;5045224;28;20044;-57
2021/04/16 06:10:24;;;;;;;5.97;3.38;;;5.30;76.60;;;;;;5017055;28;20025;-52
2021/04/16 06:12:51;;;;;;;4.85;3.30;;;5.30;76.90;;;;;;5020791;28;20030;-54
2021/04/16 06:15:22;;;;;;;10.63;3.40;;;5.30;76.90;;;;;;5036117;28;20091;-55
2021/04/16 06:17:48;;;;;;;4.47;3.25;;;5.30;76.90;;;;;;5017546;28;20065;-54
2021/04/16 06:20:15;;;;;;;6.32;3.08;;;5.20;77.20;;;;;;5037681;28;20513;-56
2021/04/16 06:22:41;;;;;;;4.18;3.03;;;5.10;77.10;;;;;;5016478;28;20033;-51
2021/04/16 06:25:09;;;;;;;6.43;3.45;;;5.10;77.50;;;;;;5017897;28;20108;-56
2021/04/16 06:27:35;;;;;;;4.72;3.53;;;5.10;77.50;;;;;;5014335;28;20025;-58
2021/04/16 06:30:00;;;;;;;5.82;3.78;;;5.20;77.30;;;;;;5012712;28;20030;-54
2021/04/16 06:32:26;;;;;;;5.68;3.30;;;5.40;77.30;;;;;;5016180;28;20038;-54
2021/04/16 06:34:52;;;;;;;7.22;3.35;;;5.30;76.20;;;;;;5012267;28;20401;-54
2021/04/16 06:37:18;;;;;;;6.25;3.53;;;5.40;78.40;;;;;;5025098;28;20045;-57
2021/04/16 06:39:44;;;;;;;8.68;3.50;;;5.40;76.30;;;;;;5018358;28;20033;-53
2021/04/16 06:42:36;;;;;;;8.20;3.55;;;5.40;75.90;;;;;;5014887;28;21314;-54
2021/04/16 06:45:09;;;;;;;8.50;3.70;;;5.40;76.10;;;;;;5026196;28;20030;-52
2021/04/16 06:47:50;;;;;;;5.35;3.20;;;5.60;76.00;;;;;;5021812;28;20025;-53
2021/04/16 06:50:17;;;;;;;5.03;3.60;;;5.60;75.40;;;;;;5014120;28;20438;-54
2021/04/16 06:53:15;;;;;;;5.25;3.30;;;5.50;75.80;;;;;;5015300;28;20056;-53
2021/04/16 06:55:50;;;;;;;6.75;4.20;;;5.50;76.00;;;;;;5008227;28;20034;-54
2021/04/16 06:58:25;;;;;;;6.90;3.63;;;5.50;76.10;;;;;;5022563;28;20064;-56
2021/04/16 07:01:31;;;;;;;4.93;3.08;;;5.50;76.10;;;;;;5028810;28;20040;-57
2021/04/16 07:04:15;;;;;;;5.75;3.40;;;5.60;75.90;;;;;;5014870;28;20502;-56
2021/04/16 07:06:41;;;;;;;9.25;3.60;;;5.60;75.60;;;;;;5021508;28;20049;-55
2021/04/16 07:09:23;;;;;;;5.97;3.40;;;5.60;75.30;;;;;;5014379;28;20386;-57
2021/04/16 07:11:54;;;;;;;5.10;3.10;;;5.60;75.30;;;;;;5022773;28;20040;-54
2021/04/16 07:15:06;;;;;;;5.10;3.15;;;5.70;75.70;;;;;;5013067;28;20086;-57
2021/04/16 07:17:38;;;;;;;6.38;3.50;;;5.80;75.00;;;;;;5019467;28;20746;-55
2021/04/16 07:20:04;;;;;;;6.43;3.20;;;5.90;74.80;;;;;;5018750;28;20389;-55
2021/04/16 07:22:46;;;;;;;5.63;3.50;;;5.70;74.50;;;;;;5022323;28;20037;-59
2021/04/16 07:25:37;;;;;;;5.68;3.22;;;5.60;75.10;;;;;;5025847;28;20112;-58
2021/04/16 07:28:09;;;;;;;5.55;3.28;;;5.50;75.40;;;;;;5036636;28;20021;-57
2021/04/16 07:30:44;;;;;;;6.47;3.40;;;5.60;76.10;;;;;;5028684;28;20045;-58
2021/04/16 07:33:23;;;;;;;6.45;3.30;;;5.80;75.20;;;;;;5029541;28;20140;-58
2021/04/16 07:35:49;;;;;;;6.35;3.95;;;6.00;74.80;;;;;;5031812;28;20040;-58
2021/04/16 07:38:26;;;;;;;6.95;3.70;;;6.00;74.50;;;;;;5016197;28;20121;-58
2021/04/16 07:41:23;;;;;;;6.45;3.63;;;6.10;74.10;;;;;;5020160;28;20045;-53
2021/04/16 07:43:51;;;;;;;8.68;3.55;;;6.00;74.20;;;;;;5014381;28;20030;-54
2021/04/16 07:46:25;;;;;;;8.40;3.95;;;5.80;74.50;;;;;;5029811;28;20037;-54
2021/04/16 07:49:14;;;;;;;7.75;3.30;;;5.80;75.00;;;;;;5022860;28;20527;-57
2021/04/16 07:51:43;;;;;;;5.72;3.40;;;5.70;74.70;;;;;;5017977;28;20346;-57
2021/04/16 07:54:12;;;;;;;4.75;3.20;;;5.90;75.00;;;;;;5025719;28;20046;-55
2021/04/16 07:56:38;;;;;;;4.45;3.33;;;5.80;75.00;;;;;;5014959;28;20034;-57
2021/04/16 07:59:10;;;;;;;5.43;3.28;;;6.00;75.10;;;;;;5023833;28;20091;-55
2021/04/16 08:01:38;;;;;;;6.57;3.88;;;6.10;74.20;;;;;;5025397;28;20105;-55
2021/04/16 08:04:28;;;;;;;6.45;3.30;;;6.30;73.80;;;;;;5036591;28;20037;-58
2021/04/16 08:07:25;;;;;;;6.43;3.45;;;6.20;74.10;;;;;;5013787;28;20033;-62
2021/04/16 08:09:50;;;;;;;7.40;4.15;;;6.40;73.70;;;;;;5019061;28;20112;-57
2021/04/16 08:12:24;;;;;;;11.23;5.57;;;6.30;73.80;;;;;;5031595;28;20120;-58
2021/04/16 08:14:50;;;;;;;5.25;3.60;;;6.50;73.70;;;;;;5023922;28;20037;-60
2021/04/16 08:17:29;;;;;;;6.13;3.40;;;6.70;73.40;;;;;;5033438;28;20099;-58
2021/04/16 08:20:15;;;;;;;5.30;3.20;;;6.90;71.90;;;;;;5039491;28;20029;-55
2021/04/16 08:22:41;;;;;;;6.47;4.10;;;6.70;71.60;;;;;;5037587;28;20037;-57
2021/04/16 08:25:21;;;;;;;6.55;3.75;;;6.40;73.00;;;;;;5018551;28;20101;-56
2021/04/16 08:27:51;;;;;;;6.15;3.40;;;6.50;73.00;;;;;;5036617;28;20065;-56
2021/04/16 08:30:55;;;;;;;4.20;3.20;;;6.60;72.10;;;;;;5037297;28;20036;-55
2021/04/16 08:33:32;;;;;;;5.68;3.50;;;6.50;72.50;;;;;;5024084;28;20036;-55
2021/04/16 08:36:20;;;;;;;7.65;3.80;;;6.50;72.60;;;;;;5056307;28;20025;-57
2021/04/16 08:39:15;;;;;;;5.05;2.92;;;6.70;72.60;;;;;;5049882;28;20040;-56
2021/04/16 08:42:01;;;;;;;7.50;4.45;;;6.90;72.00;;;;;;5035702;28;20499;-55
2021/04/16 08:44:31;;;;;;;6.45;3.45;;;6.90;71.70;;;;;;5032657;28;20037;-56
2021/04/16 08:47:00;;;;;;;4.28;3.35;;;7.00;71.80;;;;;;5054524;28;20522;-52
2021/04/16 08:49:29;;;;;;;5.38;3.65;;;7.20;71.10;;;;;;5030460;28;20038;-54
2021/04/16 08:52:01;;;;;;;5.60;3.38;;;7.30;70.40;;;;;;5022714;28;20385;-53
2021/04/16 08:54:31;;;;;;;6.72;3.55;;;7.00;70.80;;;;;;5035261;28;20036;-52
2021/04/16 08:57:09;;;;;;;6.57;3.75;;;6.90;71.00;;;;;;5052534;28;20029;-57
2021/04/16 08:59:53;;;;;;;8.73;4.40;;;6.90;71.40;;;;;;5038389;28;20033;-57
2021/04/16 09:02:29;;;;;;;7.57;4.03;;;6.90;71.80;;;;;;5047693;28;20631;-54
2021/04/16 09:05:26;;;;;;;6.93;4.10;;;6.90;71.50;;;;;;5034879;28;20041;-57
2021/04/16 09:08:09;;;;;;;5.80;3.95;;;6.90;71.40;;;;;;5040959;28;20044;-52
2021/04/16 09:10:41;;;;;;;5.30;3.50;;;7.00;71.30;;;;;;5048144;28;20028;-57
2021/04/16 09:13:11;;;;;;;7.57;3.70;;;7.00;71.40;;;;;;5037396;28;20029;-58
2021/04/16 09:15:40;;;;;;;5.50;3.75;;;6.80;72.10;;;;;;5047898;28;20495;-54
2021/04/16 09:18:12;;;;;;;7.45;3.50;;;6.80;72.00;;;;;;5044496;28;20040;-55
2021/04/16 09:20:39;;;;;;;5.50;3.22;;;6.70;72.90;;;;;;5038838;28;20044;-55
2021/04/16 09:23:37;;;;;;;8.68;4.03;;;6.90;72.20;;;;;;5033860;28;20480;-54
2021/04/16 09:26:03;;;;;;;7.72;3.90;;;6.80;72.40;;;;;;5029845;28;20437;-55
2021/04/16 09:28:33;;;;;;;4.82;3.20;;;6.90;72.40;;;;;;5052312;28;20128;-55
2021/04/16 09:31:05;;;;;;;5.10;3.10;;;6.80;72.10;;;;;;5053251;28;20033;-54
2021/04/16 09:33:36;;;;;;;5.32;3.40;;;6.80;73.00;;;;;;5049469;28;20036;-56
2021/04/16 09:36:05;;;;;;;6.72;3.75;;;7.10;71.80;;;;;;5033313;28;20014;-56
2021/04/16 09:38:55;;;;;;;4.50;3.25;;;7.20;71.80;;;;;;5052533;28;20033;-54
2021/04/16 09:41:26;;;;;;;9.00;3.70;;;7.30;71.80;;;;;;5052551;28;20048;-56
2021/04/16 09:43:54;;;;;;;6.47;3.90;;;7.20;71.20;;;;;;5033719;28;20036;-58
2021/04/16 09:46:35;;;;;;;6.20;3.30;;;7.40;71.10;;;;;;5033131;28;20037;-56
2021/04/16 09:49:11;;;;;;;7.50;4.05;;;7.50;71.20;;;;;;5036107;28;20039;-52
2021/04/16 09:51:45;;;;;;;4.10;3.40;;;7.70;70.80;;;;;;5028808;28;20127;-52
2021/04/16 09:54:13;;;;;;;7.90;3.60;;;7.70;69.80;;;;;;5024265;28;20035;-56
2021/04/16 09:57:02;;;;;;;5.50;3.40;;;7.70;69.80;;;;;;5026185;28;20036;-53
2021/04/16 09:59:37;;;;;;;6.82;3.60;;;7.60;70.20;;;;;;5034405;28;20040;-56
2021/04/16 10:02:12;;;;;;;4.90;3.50;;;7.60;70.60;;;;;;5031870;28;20036;-53
2021/04/16 10:04:56;;;;;;;7.68;3.75;;;7.60;70.70;;;;;;5053327;28;20033;-58
2021/04/16 10:07:57;;;;;;;6.57;3.42;;;7.70;70.00;;;;;;5046271;28;20175;-53
2021/04/16 10:10:52;;;;;;;8.43;4.05;;;7.90;69.50;;;;;;5021704;28;20544;-54
2021/04/16 10:13:28;;;;;;;;;;;7.90;69.30;;;;;;5035100;28;20045;-52
2021/04/16 10:15:57;;;;;;;6.22;5.13;;;8.00;70.10;;;;;;5014097;28;19939;-56
2021/04/16 10:18:32;;;;;;;10.20;5.50;;;8.10;69.50;;;;;;5026513;28;20033;-53
2021/04/16 10:21:20;;;;;;;10.02;5.47;;;8.30;68.90;;;;;;5032755;28;20033;-50
2021/04/16 10:23:51;;;;;;;6.38;4.10;;;8.60;68.30;;;;;;5033354;28;20681;-50
2021/04/16 12:39:13;;;;;;;5.35;3.80;;;10.10;62.10;;;;;;5020282;28;20438;-55
2021/04/16 12:41:43;;;;;;;6.35;4.20;;;10.10;61.60;;;;;;5030804;28;20074;-57
2021/04/16 12:44:14;;;;;;;;;;;10.20;62.00;;;;;;5053307;28;20044;-53
2021/04/16 12:46:40;;;;;;;7.03;3.78;;;10.30;61.40;;;;;;5032889;28;19912;-53
2021/04/16 12:49:08;;;;;;;6.18;3.90;;;10.40;61.70;;;;;;5034155;28;20418;-55
2021/04/16 12:51:33;;;;;;;6.88;3.65;;;10.60;61.10;;;;;;5039477;28;20037;-56
2021/04/16 12:53:59;;;;;;;6.18;3.65;;;10.80;60.30;;;;;;5044973;28;20025;-54
2021/04/16 12:56:33;;;;;;;5.85;3.67;;;10.90;59.30;;;;;;5037428;28;20029;-53
2021/04/16 12:59:07;;;;;;;5.38;3.67;;;10.60;59.80;;;;;;5051087;28;20072;-55
2021/04/16 13:01:33;;;;;;;4.65;3.33;;;10.30;59.90;;;;;;5037259;28;20509;-57
2021/04/16 13:03:59;;;;;;;8.00;4.13;;;10.20;60.00;;;;;;5045099;28;20037;-54
2021/04/16 13:06:35;;;;;;;4.85;3.53;;;10.20;60.80;;;;;;5034689;28;20033;-52
2021/04/16 13:09:02;;;;;;;6.72;3.42;;;10.20;60.20;;;;;;5044554;28;20104;-50
2021/04/16 13:11:28;;;;;;;5.07;3.30;;;10.20;60.20;;;;;;5053346;28;20074;-53
2021/04/16 13:13:55;;;;;;;5.88;3.95;;;10.20;60.60;;;;;;5054184;28;20427;-58
2021/04/16 13:16:22;;;;;;;6.18;3.45;;;10.30;61.00;;;;;;5051227;28;20028;-55
2021/04/16 13:18:54;;;;;;;10.20;3.70;;;10.30;59.10;;;;;;5040819;28;20116;-57
2021/04/16 13:21:27;;;;;;;6.00;3.28;;;10.30;59.90;;;;;;5037801;28;20056;-57
2021/04/16 13:23:53;;;;;;;5.10;3.30;;;10.10;60.50;;;;;;5037463;28;20045;-56
2021/04/16 13:26:19;;;;;;;7.63;3.58;;;10.00;60.50;;;;;;5036106;28;20037;-66
2021/04/16 13:28:45;;;;;;;5.30;3.35;;;10.00;61.10;;;;;;5033349;28;20040;-53
2021/04/16 13:31:12;;;;;;;6.93;3.22;;;10.20;60.70;;;;;;5033609;28;20485;-50
2021/04/16 13:33:43;;;;;;;6.55;3.72;;;10.20;60.50;;;;;;5033784;28;20038;-53
2021/04/16 13:36:17;;;;;;;6.63;3.70;;;9.90;60.70;;;;;;5029356;28;20030;-57
2021/04/16 13:38:44;;;;;;;6.15;3.28;;;10.00;61.30;;;;;;5015748;28;20041;-54
2021/04/16 13:41:10;;;;;;;4.80;3.42;;;10.00;61.70;;;;;;5016665;28;20083;-54
2021/04/16 13:43:37;;;;;;;4.63;3.47;;;10.00;61.50;;;;;;5018923;28;20046;-52
2021/04/16 13:46:05;;;;;;;4.95;3.25;;;10.00;61.60;;;;;;5027935;28;20041;-54
2021/04/16 13:48:31;;;;;;;5.85;3.65;;;10.00;61.40;;;;;;5033586;28;20124;-54
2021/04/16 13:50:57;;;;;;;9.02;3.58;;;10.00;61.50;;;;;;5033394;28;20032;-56
2021/04/16 13:53:23;;;;;;;4.32;3.42;;;9.80;61.60;;;;;;5032488;28;20030;-56
2021/04/16 13:55:49;;;;;;;4.68;3.67;;;9.80;61.50;;;;;;5033370;28;20061;-54
2021/04/16 13:58:14;;;;;;;5.70;3.67;;;9.60;62.00;;;;;;5031427;28;20068;-51
2021/04/16 14:00:40;;;;;;;4.28;3.45;;;9.70;61.90;;;;;;5033461;28;20041;-54
2021/04/16 14:03:19;;;;;;;6.57;3.30;;;9.70;62.20;;;;;;5015420;28;20508;-51
2021/04/16 14:05:49;;;;;;;4.38;3.38;;;9.70;61.00;;;;;;5015943;28;20064;-57
2021/04/16 14:08:31;;;;;;;5.18;3.28;;;9.80;61.20;;;;;;5015083;28;20026;-55
2021/04/16 14:10:57;;;;;;;11.88;3.53;;;9.90;60.80;;;;;;5014188;28;20094;-50
2021/04/16 14:13:23;;;;;;;5.05;3.67;;;9.80;60.90;;;;;;5025487;28;20037;-55
2021/04/16 14:15:49;;;;;;;4.68;3.63;;;9.90;60.90;;;;;;5011488;28;20029;-54
2021/04/16 14:18:37;;;;;;;5.88;3.53;;;10.00;60.80;;;;;;5005815;28;20120;-50
2021/04/16 14:21:06;;;;;;;4.47;3.30;;;10.00;59.50;;;;;;5030902;28;20037;-62
2021/04/16 14:23:32;;;;;;;4.40;3.53;;;10.10;60.00;;;;;;5033021;28;20060;-55
2021/04/16 14:25:58;;;;;;;6.38;3.78;;;10.00;59.70;;;;;;5036599;28;20033;-55
2021/04/16 14:28:24;;;;;;;3.67;3.15;;;10.00;59.30;;;;;;5031212;28;20420;-56
2021/04/16 14:30:52;;;;;;;5.40;3.20;;;10.20;59.30;;;;;;5049703;28;20045;-55
2021/04/16 14:33:22;;;;;;;6.63;3.40;;;10.10;58.60;;;;;;5042215;28;20025;-51
2021/04/16 14:35:48;;;;;;;4.30;3.50;;;10.00;59.10;;;;;;5040592;28;20026;-51
2021/04/16 14:38:14;;;;;;;8.60;3.60;;;10.00;59.20;;;;;;5037369;28;20093;-56
2021/04/16 14:40:40;;;;;;;4.50;3.42;;;10.20;59.30;;;;;;5032359;28;20455;-55
2021/04/16 14:43:08;;;;;;;5.00;3.55;;;10.20;59.20;;;;;;5033412;28;20033;-50
2021/04/16 14:45:39;;;;;;;8.05;3.85;;;10.30;59.10;;;;;;5032486;28;20099;-55
2021/04/16 14:48:06;;;;;;;4.90;3.22;;;10.30;59.30;;;;;;5049360;28;20091;-56
2021/04/16 14:50:31;;;;;;;5.38;3.45;;;10.30;58.70;;;;;;5042159;28;20037;-53
2021/04/16 14:53:04;;;;;;;4.47;3.40;;;10.30;58.70;;;;;;5048347;28;20044;-54
2021/04/16 14:55:35;;;;;;;7.80;3.33;;;10.20;57.60;;;;;;5052570;28;20044;-56
2021/04/16 14:58:01;;;;;;;5.05;3.20;;;10.00;57.90;;;;;;5036116;28;20069;-57
2021/04/16 15:00:30;;;;;;;4.32;3.25;;;10.10;58.00;;;;;;5032274;28;20618;-59
2021/04/16 15:02:56;;;;;;;4.95;3.47;;;10.10;57.10;;;;;;5047046;28;20032;-53
2021/04/16 15:05:23;;;;;;;4.93;3.33;;;10.10;57.10;;;;;;5042408;28;20092;-54
2021/04/16 15:07:55;;;;;;;4.85;3.40;;;10.00;56.80;;;;;;5036847;28;20033;-54
2021/04/16 15:10:31;;;;;;;9.70;3.75;;;10.20;56.60;;;;;;5030997;28;20512;-53
2021/04/16 15:12:57;;;;;;;4.28;3.10;;;10.10;56.90;;;;;;5042235;28;20166;-56
2021/04/16 15:15:25;;;;;;;5.13;3.38;;;10.00;56.90;;;;;;5052151;28;20033;-57
2021/04/16 15:17:51;;;;;;;5.20;3.25;;;10.10;56.80;;;;;;5043115;28;20041;-56
2021/04/16 15:20:20;;;;;;;6.82;3.70;;;10.30;56.50;;;;;;5038158;28;20037;-58
2021/04/16 15:22:46;;;;;;;5.38;3.22;;;10.20;56.70;;;;;;5049449;28;20032;-55
2021/04/16 15:25:12;;;;;;;9.48;4.05;;;10.40;56.80;;;;;;5043992;28;20393;-57